sensor_id;sensor_type;location;lat;lon;timestamp;temperature;humidity
40670;DHT22;26355;45.528;9.234;2023-08-17T00:00:10;30.10;98.40
40670;DHT22;26355;45.528;9.234;2023-08-17T00:02:39;30.10;98.30
40670;DHT22;26355;45.528;9.234;2023-08-17T00:05:05;30.00;98.30
40670;DHT22;26355;45.528;9.234;2023-08-17T00:07:34;30.00;98.30
40670;DHT22;26355;45.528;9.234;2023-08-17T00:10:00;29.90;98.50
40670;DHT22;26355;45.528;9.234;2023-08-17T00:12:26;29.90;98.40
40670;DHT22;26355;45.528;9.234;2023-08-17T00:14:52;29.80;98.70
40670;DHT22;26355;45.528;9.234;2023-08-17T00:17:18;29.80;98.80
40670;DHT22;26355;45.528;9.234;2023-08-17T00:19:44;29.90;98.90
40670;DHT22;26355;45.528;9.234;2023-08-17T00:22:10;29.80;99.00
40670;DHT22;26355;45.528;9.234;2023-08-17T00:24:35;29.80;99.20
40670;DHT22;26355;45.528;9.234;2023-08-17T00:27:01;29.70;99.40
40670;DHT22;26355;45.528;9.234;2023-08-17T00:29:26;29.80;99.50
40670;DHT22;26355;45.528;9.234;2023-08-17T00:31:52;29.90;99.60
40670;DHT22;26355;45.528;9.234;2023-08-17T00:34:18;29.90;99.70
40670;DHT22;26355;45.528;9.234;2023-08-17T00:36:44;29.90;99.90
40670;DHT22;26355;45.528;9.234;2023-08-17T00:39:10;30.00;99.80
40670;DHT22;26355;45.528;9.234;2023-08-17T00:41:35;30.00;99.80
40670;DHT22;26355;45.528;9.234;2023-08-17T00:44:01;30.10;99.90
40670;DHT22;26355;45.528;9.234;2023-08-17T00:46:27;30.00;99.80
40670;DHT22;26355;45.528;9.234;2023-08-17T00:48:54;30.00;99.90
40670;DHT22;26355;45.528;9.234;2023-08-17T00:51:24;29.90;99.90
40670;DHT22;26355;45.528;9.234;2023-08-17T00:53:56;29.90;99.90
40670;DHT22;26355;45.528;9.234;2023-08-17T00:56:23;30.00;99.90
40670;DHT22;26355;45.528;9.234;2023-08-17T00:58:49;30.00;99.90
40670;DHT22;26355;45.528;9.234;2023-08-17T01:01:15;30.00;99.90
40670;DHT22;26355;45.528;9.234;2023-08-17T01:03:41;30.00;99.90
40670;DHT22;26355;45.528;9.234;2023-08-17T01:06:07;29.90;99.90
40670;DHT22;26355;45.528;9.234;2023-08-17T01:08:33;29.90;99.90
40670;DHT22;26355;45.528;9.234;2023-08-17T01:11:18;29.90;99.90
40670;DHT22;26355;45.528;9.234;2023-08-17T01:14:05;29.90;99.90
40670;DHT22;26355;45.528;9.234;2023-08-17T01:16:42;29.90;99.90
40670;DHT22;26355;45.528;9.234;2023-08-17T01:19:09;29.90;99.90
40670;DHT22;26355;45.528;9.234;2023-08-17T01:21:42;29.90;99.90
40670;DHT22;26355;45.528;9.234;2023-08-17T01:24:08;29.90;99.90
40670;DHT22;26355;45.528;9.234;2023-08-17T01:26:36;29.80;99.90
40670;DHT22;26355;45.528;9.234;2023-08-17T01:29:01;29.80;99.90
40670;DHT22;26355;45.528;9.234;2023-08-17T01:31:31;29.80;99.90
40670;DHT22;26355;45.528;9.234;2023-08-17T01:34:07;29.70;99.90
40670;DHT22;26355;45.528;9.234;2023-08-17T01:36:42;29.70;99.90
40670;DHT22;26355;45.528;9.234;2023-08-17T01:39:08;29.60;99.90
40670;DHT22;26355;45.528;9.234;2023-08-17T01:41:36;29.70;99.90
40670;DHT22;26355;45.528;9.234;2023-08-17T01:44:03;29.60;99.90
40670;DHT22;26355;45.528;9.234;2023-08-17T01:46:33;29.50;99.90
40670;DHT22;26355;45.528;9.234;2023-08-17T01:48:59;29.40;99.90
40670;DHT22;26355;45.528;9.234;2023-08-17T01:51:25;29.30;99.90
40670;DHT22;26355;45.528;9.234;2023-08-17T01:53:50;29.20;99.90
40670;DHT22;26355;45.528;9.234;2023-08-17T01:56:16;29.10;99.90
40670;DHT22;26355;45.528;9.234;2023-08-17T01:58:42;29.00;99.90
40670;DHT22;26355;45.528;9.234;2023-08-17T02:01:07;29.00;99.90
40670;DHT22;26355;45.528;9.234;2023-08-17T02:03:33;29.00;99.90
40670;DHT22;26355;45.528;9.234;2023-08-17T02:05:59;28.90;99.90
40670;DHT22;26355;45.528;9.234;2023-08-17T02:08:25;28.80;99.90
40670;DHT22;26355;45.528;9.234;2023-08-17T02:10:51;28.70;99.90
40670;DHT22;26355;45.528;9.234;2023-08-17T02:13:17;28.60;99.90
40670;DHT22;26355;45.528;9.234;2023-08-17T02:15:43;28.50;99.90
40670;DHT22;26355;45.528;9.234;2023-08-17T02:18:08;28.50;99.90
40670;DHT22;26355;45.528;9.234;2023-08-17T02:20:34;28.50;99.90
40670;DHT22;26355;45.528;9.234;2023-08-17T02:23:00;28.50;99.90
40670;DHT22;26355;45.528;9.234;2023-08-17T02:25:26;28.60;99.90
40670;DHT22;26355;45.528;9.234;2023-08-17T02:27:52;28.50;99.90
40670;DHT22;26355;45.528;9.234;2023-08-17T02:30:18;28.60;99.90
40670;DHT22;26355;45.528;9.234;2023-08-17T02:32:43;28.60;99.90
40670;DHT22;26355;45.528;9.234;2023-08-17T02:35:10;28.50;99.90
40670;DHT22;26355;45.528;9.234;2023-08-17T02:37:36;28.50;99.90
40670;DHT22;26355;45.528;9.234;2023-08-17T02:40:02;28.50;99.90
40670;DHT22;26355;45.528;9.234;2023-08-17T02:42:29;28.40;99.90
40670;DHT22;26355;45.528;9.234;2023-08-17T02:44:55;28.30;99.90
40670;DHT22;26355;45.528;9.234;2023-08-17T02:47:20;28.20;99.90
40670;DHT22;26355;45.528;9.234;2023-08-17T02:49:46;28.30;99.90
40670;DHT22;26355;45.528;9.234;2023-08-17T02:52:14;28.30;99.90
40670;DHT22;26355;45.528;9.234;2023-08-17T02:54:40;28.20;99.90
40670;DHT22;26355;45.528;9.234;2023-08-17T02:57:05;28.10;99.90
40670;DHT22;26355;45.528;9.234;2023-08-17T02:59:31;28.20;99.90
40670;DHT22;26355;45.528;9.234;2023-08-17T03:01:56;28.10;99.90
40670;DHT22;26355;45.528;9.234;2023-08-17T03:04:22;28.20;99.90
40670;DHT22;26355;45.528;9.234;2023-08-17T03:06:48;28.10;99.90
40670;DHT22;26355;45.528;9.234;2023-08-17T03:09:13;28.00;99.90
40670;DHT22;26355;45.528;9.234;2023-08-17T03:11:39;28.00;99.90
40670;DHT22;26355;45.528;9.234;2023-08-17T03:14:04;28.00;99.90
40670;DHT22;26355;45.528;9.234;2023-08-17T03:16:30;28.10;99.90
40670;DHT22;26355;45.528;9.234;2023-08-17T03:18:56;28.00;99.90
40670;DHT22;26355;45.528;9.234;2023-08-17T03:21:22;28.00;99.90
40670;DHT22;26355;45.528;9.234;2023-08-17T03:23:48;27.90;99.90
40670;DHT22;26355;45.528;9.234;2023-08-17T03:26:14;28.00;99.90
40670;DHT22;26355;45.528;9.234;2023-08-17T03:28:40;28.00;99.90
40670;DHT22;26355;45.528;9.234;2023-08-17T03:31:07;28.00;99.90
40670;DHT22;26355;45.528;9.234;2023-08-17T03:33:34;28.00;99.90
40670;DHT22;26355;45.528;9.234;2023-08-17T03:36:00;28.00;99.90
40670;DHT22;26355;45.528;9.234;2023-08-17T03:38:25;28.10;99.90
40670;DHT22;26355;45.528;9.234;2023-08-17T03:40:51;28.10;99.90
40670;DHT22;26355;45.528;9.234;2023-08-17T03:43:16;28.10;99.90
40670;DHT22;26355;45.528;9.234;2023-08-17T03:45:42;28.10;99.90
40670;DHT22;26355;45.528;9.234;2023-08-17T03:48:08;28.00;99.90
40670;DHT22;26355;45.528;9.234;2023-08-17T03:50:34;28.00;99.90
40670;DHT22;26355;45.528;9.234;2023-08-17T03:53:00;28.00;99.90
40670;DHT22;26355;45.528;9.234;2023-08-17T03:55:25;28.00;99.90
40670;DHT22;26355;45.528;9.234;2023-08-17T03:57:51;28.00;99.90
40670;DHT22;26355;45.528;9.234;2023-08-17T04:00:17;28.00;99.90
40670;DHT22;26355;45.528;9.234;2023-08-17T04:02:43;28.00;99.90
40670;DHT22;26355;45.528;9.234;2023-08-17T04:05:09;28.00;99.90
40670;DHT22;26355;45.528;9.234;2023-08-17T04:07:34;28.00;99.90
40670;DHT22;26355;45.528;9.234;2023-08-17T04:10:00;28.00;99.90
40670;DHT22;26355;45.528;9.234;2023-08-17T04:12:25;28.00;99.90
40670;DHT22;26355;45.528;9.234;2023-08-17T04:14:51;27.80;99.90
40670;DHT22;26355;45.528;9.234;2023-08-17T04:17:16;27.70;99.90
40670;DHT22;26355;45.528;9.234;2023-08-17T04:19:42;27.60;99.90
40670;DHT22;26355;45.528;9.234;2023-08-17T04:22:08;27.50;99.90
40670;DHT22;26355;45.528;9.234;2023-08-17T04:24:33;27.50;99.90
40670;DHT22;26355;45.528;9.234;2023-08-17T04:26:59;27.60;99.90
40670;DHT22;26355;45.528;9.234;2023-08-17T04:29:25;27.60;99.90
40670;DHT22;26355;45.528;9.234;2023-08-17T04:31:51;27.60;99.90
40670;DHT22;26355;45.528;9.234;2023-08-17T04:34:16;27.60;99.90
40670;DHT22;26355;45.528;9.234;2023-08-17T04:36:42;27.60;99.90
40670;DHT22;26355;45.528;9.234;2023-08-17T04:39:07;27.60;99.90
40670;DHT22;26355;45.528;9.234;2023-08-17T04:41:34;27.30;99.90
40670;DHT22;26355;45.528;9.234;2023-08-17T04:44:00;27.40;99.90
40670;DHT22;26355;45.528;9.234;2023-08-17T04:46:25;27.50;99.90
40670;DHT22;26355;45.528;9.234;2023-08-17T04:48:51;27.40;99.90
40670;DHT22;26355;45.528;9.234;2023-08-17T04:51:17;27.50;99.90
40670;DHT22;26355;45.528;9.234;2023-08-17T04:53:43;27.50;99.90
40670;DHT22;26355;45.528;9.234;2023-08-17T04:56:09;27.50;99.90
40670;DHT22;26355;45.528;9.234;2023-08-17T04:58:34;27.50;99.90
40670;DHT22;26355;45.528;9.234;2023-08-17T05:01:00;27.50;99.90
40670;DHT22;26355;45.528;9.234;2023-08-17T05:03:25;27.50;99.90
40670;DHT22;26355;45.528;9.234;2023-08-17T05:05:54;27.50;99.90
40670;DHT22;26355;45.528;9.234;2023-08-17T05:08:20;27.40;99.90
40670;DHT22;26355;45.528;9.234;2023-08-17T05:10:47;27.30;99.90
40670;DHT22;26355;45.528;9.234;2023-08-17T05:13:13;27.30;99.90
40670;DHT22;26355;45.528;9.234;2023-08-17T05:15:38;27.40;99.90
40670;DHT22;26355;45.528;9.234;2023-08-17T05:18:04;27.20;99.90
40670;DHT22;26355;45.528;9.234;2023-08-17T05:20:30;27.20;99.90
40670;DHT22;26355;45.528;9.234;2023-08-17T05:22:55;27.20;99.90
40670;DHT22;26355;45.528;9.234;2023-08-17T05:25:21;27.20;99.90
40670;DHT22;26355;45.528;9.234;2023-08-17T05:27:47;27.20;99.90
40670;DHT22;26355;45.528;9.234;2023-08-17T05:30:14;27.30;99.90
40670;DHT22;26355;45.528;9.234;2023-08-17T05:32:40;27.40;99.90
40670;DHT22;26355;45.528;9.234;2023-08-17T05:35:06;27.50;99.90
40670;DHT22;26355;45.528;9.234;2023-08-17T05:37:31;27.50;99.90
40670;DHT22;26355;45.528;9.234;2023-08-17T05:39:57;27.60;99.90
40670;DHT22;26355;45.528;9.234;2023-08-17T05:42:22;27.70;99.90
40670;DHT22;26355;45.528;9.234;2023-08-17T05:44:48;27.70;99.90
40670;DHT22;26355;45.528;9.234;2023-08-17T05:47:14;27.70;99.90
40670;DHT22;26355;45.528;9.234;2023-08-17T05:49:43;27.80;99.90
40670;DHT22;26355;45.528;9.234;2023-08-17T05:52:08;27.80;99.90
40670;DHT22;26355;45.528;9.234;2023-08-17T05:54:34;27.80;99.90
40670;DHT22;26355;45.528;9.234;2023-08-17T05:56:59;27.80;99.90
40670;DHT22;26355;45.528;9.234;2023-08-17T05:59:25;27.90;99.90
40670;DHT22;26355;45.528;9.234;2023-08-17T06:01:50;27.80;99.90
40670;DHT22;26355;45.528;9.234;2023-08-17T06:04:16;27.90;99.90
40670;DHT22;26355;45.528;9.234;2023-08-17T06:06:42;27.90;99.90
40670;DHT22;26355;45.528;9.234;2023-08-17T06:09:07;27.90;99.90
40670;DHT22;26355;45.528;9.234;2023-08-17T06:11:34;28.10;99.90
40670;DHT22;26355;45.528;9.234;2023-08-17T06:13:59;28.20;99.90
40670;DHT22;26355;45.528;9.234;2023-08-17T06:16:25;28.20;99.90
40670;DHT22;26355;45.528;9.234;2023-08-17T06:18:50;28.30;99.90
40670;DHT22;26355;45.528;9.234;2023-08-17T06:21:16;28.50;99.90
40670;DHT22;26355;45.528;9.234;2023-08-17T06:23:42;28.80;99.90
40670;DHT22;26355;45.528;9.234;2023-08-17T06:26:07;29.20;99.90
40670;DHT22;26355;45.528;9.234;2023-08-17T06:28:33;29.50;99.90
40670;DHT22;26355;45.528;9.234;2023-08-17T06:30:58;29.80;99.90
40670;DHT22;26355;45.528;9.234;2023-08-17T06:33:24;30.00;99.90
40670;DHT22;26355;45.528;9.234;2023-08-17T06:35:50;30.00;99.90
40670;DHT22;26355;45.528;9.234;2023-08-17T06:38:15;30.10;99.90
40670;DHT22;26355;45.528;9.234;2023-08-17T06:40:41;30.20;99.90
40670;DHT22;26355;45.528;9.234;2023-08-17T06:43:06;30.20;99.90
40670;DHT22;26355;45.528;9.234;2023-08-17T06:45:32;30.40;99.90
40670;DHT22;26355;45.528;9.234;2023-08-17T06:47:58;30.50;99.90
40670;DHT22;26355;45.528;9.234;2023-08-17T06:50:24;30.50;99.90
40670;DHT22;26355;45.528;9.234;2023-08-17T06:52:50;30.50;99.90
40670;DHT22;26355;45.528;9.234;2023-08-17T06:55:16;30.60;99.90
40670;DHT22;26355;45.528;9.234;2023-08-17T06:57:42;30.60;99.90
40670;DHT22;26355;45.528;9.234;2023-08-17T07:00:08;30.60;99.90
40670;DHT22;26355;45.528;9.234;2023-08-17T07:02:34;30.80;99.90
40670;DHT22;26355;45.528;9.234;2023-08-17T07:05:00;30.90;99.90
40670;DHT22;26355;45.528;9.234;2023-08-17T07:07:26;30.90;99.90
40670;DHT22;26355;45.528;9.234;2023-08-17T07:09:52;31.10;99.90
40670;DHT22;26355;45.528;9.234;2023-08-17T07:12:17;31.00;99.90
40670;DHT22;26355;45.528;9.234;2023-08-17T07:14:44;31.00;99.90
40670;DHT22;26355;45.528;9.234;2023-08-17T07:17:10;31.00;99.90
40670;DHT22;26355;45.528;9.234;2023-08-17T07:19:35;31.00;99.90
40670;DHT22;26355;45.528;9.234;2023-08-17T07:22:01;30.90;99.90
40670;DHT22;26355;45.528;9.234;2023-08-17T07:24:27;30.90;99.90
40670;DHT22;26355;45.528;9.234;2023-08-17T07:26:52;30.90;99.90
40670;DHT22;26355;45.528;9.234;2023-08-17T07:29:18;31.00;99.90
40670;DHT22;26355;45.528;9.234;2023-08-17T07:31:44;31.10;99.90
40670;DHT22;26355;45.528;9.234;2023-08-17T07:34:10;31.10;99.90
40670;DHT22;26355;45.528;9.234;2023-08-17T07:36:35;31.20;99.90
40670;DHT22;26355;45.528;9.234;2023-08-17T07:39:01;31.20;99.90
40670;DHT22;26355;45.528;9.234;2023-08-17T07:41:27;31.20;99.90
40670;DHT22;26355;45.528;9.234;2023-08-17T07:43:52;31.20;99.90
40670;DHT22;26355;45.528;9.234;2023-08-17T07:46:18;31.10;99.90
40670;DHT22;26355;45.528;9.234;2023-08-17T07:48:43;31.20;99.90
40670;DHT22;26355;45.528;9.234;2023-08-17T07:51:09;31.30;99.90
40670;DHT22;26355;45.528;9.234;2023-08-17T07:53:34;31.30;99.90
40670;DHT22;26355;45.528;9.234;2023-08-17T07:56:00;31.30;99.90
40670;DHT22;26355;45.528;9.234;2023-08-17T07:58:25;31.30;99.90
40670;DHT22;26355;45.528;9.234;2023-08-17T08:00:51;31.40;99.90
40670;DHT22;26355;45.528;9.234;2023-08-17T08:03:17;31.40;99.90
40670;DHT22;26355;45.528;9.234;2023-08-17T08:05:42;31.40;99.90
40670;DHT22;26355;45.528;9.234;2023-08-17T08:08:08;31.40;99.90
40670;DHT22;26355;45.528;9.234;2023-08-17T08:10:33;31.40;99.90
40670;DHT22;26355;45.528;9.234;2023-08-17T08:12:59;31.40;99.90
40670;DHT22;26355;45.528;9.234;2023-08-17T08:15:24;31.20;99.90
40670;DHT22;26355;45.528;9.234;2023-08-17T08:17:50;31.20;99.90
40670;DHT22;26355;45.528;9.234;2023-08-17T08:20:16;31.20;99.90
40670;DHT22;26355;45.528;9.234;2023-08-17T08:22:42;31.20;99.90
40670;DHT22;26355;45.528;9.234;2023-08-17T08:25:07;31.20;99.90
40670;DHT22;26355;45.528;9.234;2023-08-17T08:27:33;31.30;99.90
40670;DHT22;26355;45.528;9.234;2023-08-17T08:29:58;31.30;99.90
40670;DHT22;26355;45.528;9.234;2023-08-17T08:32:24;31.40;99.90
40670;DHT22;26355;45.528;9.234;2023-08-17T08:34:49;31.50;99.90
40670;DHT22;26355;45.528;9.234;2023-08-17T08:37:15;31.60;99.90
40670;DHT22;26355;45.528;9.234;2023-08-17T08:39:54;31.60;99.90
40670;DHT22;26355;45.528;9.234;2023-08-17T08:42:21;31.70;99.90
40670;DHT22;26355;45.528;9.234;2023-08-17T08:44:47;31.80;99.90
40670;DHT22;26355;45.528;9.234;2023-08-17T08:47:13;31.80;99.90
40670;DHT22;26355;45.528;9.234;2023-08-17T08:49:40;32.00;99.90
40670;DHT22;26355;45.528;9.234;2023-08-17T08:52:14;32.10;99.90
40670;DHT22;26355;45.528;9.234;2023-08-17T08:54:46;32.00;99.90
40670;DHT22;26355;45.528;9.234;2023-08-17T08:57:14;32.00;99.90
40670;DHT22;26355;45.528;9.234;2023-08-17T08:59:41;31.90;99.90
40670;DHT22;26355;45.528;9.234;2023-08-17T09:02:14;31.90;99.90
40670;DHT22;26355;45.528;9.234;2023-08-17T09:04:41;31.90;99.90
40670;DHT22;26355;45.528;9.234;2023-08-17T09:07:08;31.90;99.90
40670;DHT22;26355;45.528;9.234;2023-08-17T09:09:35;32.00;99.90
40670;DHT22;26355;45.528;9.234;2023-08-17T09:12:01;32.10;99.90
40670;DHT22;26355;45.528;9.234;2023-08-17T09:14:26;32.20;99.90
40670;DHT22;26355;45.528;9.234;2023-08-17T09:16:52;32.30;99.90
40670;DHT22;26355;45.528;9.234;2023-08-17T09:19:18;32.30;99.90
40670;DHT22;26355;45.528;9.234;2023-08-17T09:21:44;32.30;99.90
40670;DHT22;26355;45.528;9.234;2023-08-17T09:24:12;32.30;99.80
40670;DHT22;26355;45.528;9.234;2023-08-17T09:26:38;32.50;99.80
40670;DHT22;26355;45.528;9.234;2023-08-17T09:29:19;32.60;99.80
40670;DHT22;26355;45.528;9.234;2023-08-17T09:31:46;32.60;99.60
40670;DHT22;26355;45.528;9.234;2023-08-17T09:34:14;32.60;99.70
40670;DHT22;26355;45.528;9.234;2023-08-17T09:36:40;32.70;99.70
40670;DHT22;26355;45.528;9.234;2023-08-17T09:39:06;32.70;99.30
40670;DHT22;26355;45.528;9.234;2023-08-17T09:41:38;32.80;99.40
40670;DHT22;26355;45.528;9.234;2023-08-17T09:44:09;32.90;99.10
40670;DHT22;26355;45.528;9.234;2023-08-17T09:46:34;32.90;99.10
40670;DHT22;26355;45.528;9.234;2023-08-17T09:49:02;32.80;99.30
40670;DHT22;26355;45.528;9.234;2023-08-17T09:51:30;32.70;99.30
40670;DHT22;26355;45.528;9.234;2023-08-17T09:53:56;32.70;99.30
40670;DHT22;26355;45.528;9.234;2023-08-17T09:56:24;32.90;99.20
40670;DHT22;26355;45.528;9.234;2023-08-17T09:58:50;33.00;99.20
40670;DHT22;26355;45.528;9.234;2023-08-17T10:01:17;33.10;99.20
40670;DHT22;26355;45.528;9.234;2023-08-17T10:03:44;33.20;99.00
40670;DHT22;26355;45.528;9.234;2023-08-17T10:06:20;33.30;99.10
40670;DHT22;26355;45.528;9.234;2023-08-17T10:08:49;33.40;98.90
40670;DHT22;26355;45.528;9.234;2023-08-17T10:11:19;33.30;98.60
40670;DHT22;26355;45.528;9.234;2023-08-17T10:13:51;33.20;98.60
40670;DHT22;26355;45.528;9.234;2023-08-17T10:16:29;33.30;98.50
40670;DHT22;26355;45.528;9.234;2023-08-17T10:19:24;33.30;98.50
40670;DHT22;26355;45.528;9.234;2023-08-17T10:21:56;33.40;98.50
40670;DHT22;26355;45.528;9.234;2023-08-17T10:24:24;33.50;98.50
40670;DHT22;26355;45.528;9.234;2023-08-17T10:26:50;33.60;98.50
40670;DHT22;26355;45.528;9.234;2023-08-17T10:29:17;33.70;98.30
40670;DHT22;26355;45.528;9.234;2023-08-17T10:31:44;33.80;98.30
40670;DHT22;26355;45.528;9.234;2023-08-17T10:34:13;33.90;98.20
40670;DHT22;26355;45.528;9.234;2023-08-17T10:36:39;34.00;98.20
40670;DHT22;26355;45.528;9.234;2023-08-17T10:39:23;34.10;98.00
40670;DHT22;26355;45.528;9.234;2023-08-17T10:41:50;34.10;97.70
40670;DHT22;26355;45.528;9.234;2023-08-17T10:44:17;34.20;97.80
40670;DHT22;26355;45.528;9.234;2023-08-17T10:46:43;34.10;97.70
40670;DHT22;26355;45.528;9.234;2023-08-17T10:49:31;34.10;97.60
40670;DHT22;26355;45.528;9.234;2023-08-17T10:52:03;34.20;97.70
40670;DHT22;26355;45.528;9.234;2023-08-17T10:54:39;34.20;97.20
40670;DHT22;26355;45.528;9.234;2023-08-17T11:00:18;34.20;97.60
40670;DHT22;26355;45.528;9.234;2023-08-17T11:02:57;34.30;96.90
40670;DHT22;26355;45.528;9.234;2023-08-17T11:11:12;34.40;96.40
40670;DHT22;26355;45.528;9.234;2023-08-17T11:13:45;34.40;96.10
40670;DHT22;26355;45.528;9.234;2023-08-17T11:16:12;34.50;96.00
40670;DHT22;26355;45.528;9.234;2023-08-17T11:18:38;34.60;96.00
40670;DHT22;26355;45.528;9.234;2023-08-17T11:21:06;34.70;96.00
40670;DHT22;26355;45.528;9.234;2023-08-17T11:23:35;34.80;95.70
40670;DHT22;26355;45.528;9.234;2023-08-17T11:26:01;34.90;95.50
40670;DHT22;26355;45.528;9.234;2023-08-17T11:28:29;34.80;95.00
40670;DHT22;26355;45.528;9.234;2023-08-17T11:31:02;34.80;95.00
40670;DHT22;26355;45.528;9.234;2023-08-17T11:33:30;34.80;95.30
40670;DHT22;26355;45.528;9.234;2023-08-17T11:36:00;34.90;95.30
40670;DHT22;26355;45.528;9.234;2023-08-17T11:38:30;34.90;94.50
40670;DHT22;26355;45.528;9.234;2023-08-17T11:41:00;34.80;94.60
40670;DHT22;26355;45.528;9.234;2023-08-17T11:43:30;34.90;94.60
40670;DHT22;26355;45.528;9.234;2023-08-17T11:45:56;35.00;94.80
40670;DHT22;26355;45.528;9.234;2023-08-17T11:48:22;35.10;94.80
40670;DHT22;26355;45.528;9.234;2023-08-17T11:50:48;35.20;94.80
40670;DHT22;26355;45.528;9.234;2023-08-17T11:53:14;35.10;94.60
40670;DHT22;26355;45.528;9.234;2023-08-17T11:55:40;35.20;94.90
40670;DHT22;26355;45.528;9.234;2023-08-17T11:58:06;35.20;94.80
40670;DHT22;26355;45.528;9.234;2023-08-17T12:00:42;35.30;95.00
40670;DHT22;26355;45.528;9.234;2023-08-17T12:03:15;35.30;94.70
40670;DHT22;26355;45.528;9.234;2023-08-17T12:05:41;35.30;95.40
40670;DHT22;26355;45.528;9.234;2023-08-17T12:08:07;35.20;95.70
40670;DHT22;26355;45.528;9.234;2023-08-17T12:10:33;35.20;96.00
40670;DHT22;26355;45.528;9.234;2023-08-17T12:13:00;35.10;96.20
40670;DHT22;26355;45.528;9.234;2023-08-17T12:15:33;35.10;96.30
40670;DHT22;26355;45.528;9.234;2023-08-17T12:18:02;35.10;96.30
40670;DHT22;26355;45.528;9.234;2023-08-17T12:20:27;35.10;96.30
40670;DHT22;26355;45.528;9.234;2023-08-17T12:22:53;35.10;96.50
40670;DHT22;26355;45.528;9.234;2023-08-17T12:25:22;35.10;96.50
40670;DHT22;26355;45.528;9.234;2023-08-17T12:27:48;35.20;96.50
40670;DHT22;26355;45.528;9.234;2023-08-17T12:30:32;35.20;96.20
40670;DHT22;26355;45.528;9.234;2023-08-17T12:32:58;35.20;96.20
40670;DHT22;26355;45.528;9.234;2023-08-17T12:35:25;35.30;96.30
40670;DHT22;26355;45.528;9.234;2023-08-17T12:37:51;35.30;96.40
40670;DHT22;26355;45.528;9.234;2023-08-17T12:40:17;35.30;96.30
40670;DHT22;26355;45.528;9.234;2023-08-17T12:42:43;35.40;96.30
40670;DHT22;26355;45.528;9.234;2023-08-17T12:45:09;35.30;96.40
40670;DHT22;26355;45.528;9.234;2023-08-17T12:47:34;35.30;96.30
40670;DHT22;26355;45.528;9.234;2023-08-17T12:50:00;35.20;96.40
40670;DHT22;26355;45.528;9.234;2023-08-17T12:52:27;35.30;96.60
40670;DHT22;26355;45.528;9.234;2023-08-17T12:54:53;35.10;96.50
40670;DHT22;26355;45.528;9.234;2023-08-17T12:57:18;35.20;96.60
40670;DHT22;26355;45.528;9.234;2023-08-17T12:59:44;35.30;96.70
40670;DHT22;26355;45.528;9.234;2023-08-17T13:02:10;35.30;96.70
40670;DHT22;26355;45.528;9.234;2023-08-17T13:04:35;35.40;96.50
40670;DHT22;26355;45.528;9.234;2023-08-17T13:07:01;35.40;96.60
40670;DHT22;26355;45.528;9.234;2023-08-17T13:09:27;35.30;96.60
40670;DHT22;26355;45.528;9.234;2023-08-17T13:11:52;35.30;96.60
40670;DHT22;26355;45.528;9.234;2023-08-17T13:14:18;35.20;96.40
40670;DHT22;26355;45.528;9.234;2023-08-17T13:16:44;35.10;96.10
40670;DHT22;26355;45.528;9.234;2023-08-17T13:19:09;35.00;96.00
40670;DHT22;26355;45.528;9.234;2023-08-17T13:21:35;35.10;96.20
40670;DHT22;26355;45.528;9.234;2023-08-17T13:24:00;35.10;96.00
40670;DHT22;26355;45.528;9.234;2023-08-17T13:26:28;35.20;96.20
40670;DHT22;26355;45.528;9.234;2023-08-17T13:28:54;35.30;95.90
40670;DHT22;26355;45.528;9.234;2023-08-17T13:31:19;35.50;96.00
40670;DHT22;26355;45.528;9.234;2023-08-17T13:33:45;35.60;95.90
40670;DHT22;26355;45.528;9.234;2023-08-17T13:36:10;35.70;95.40
40670;DHT22;26355;45.528;9.234;2023-08-17T13:38:36;35.70;95.30
40670;DHT22;26355;45.528;9.234;2023-08-17T13:41:04;35.70;95.20
40670;DHT22;26355;45.528;9.234;2023-08-17T13:43:29;35.60;95.10
40670;DHT22;26355;45.528;9.234;2023-08-17T13:45:55;35.60;95.20
40670;DHT22;26355;45.528;9.234;2023-08-17T13:48:20;35.60;95.20
40670;DHT22;26355;45.528;9.234;2023-08-17T13:50:46;35.60;95.10
40670;DHT22;26355;45.528;9.234;2023-08-17T13:53:11;35.60;95.60
40670;DHT22;26355;45.528;9.234;2023-08-17T13:55:37;35.60;95.40
40670;DHT22;26355;45.528;9.234;2023-08-17T13:58:03;35.60;95.50
40670;DHT22;26355;45.528;9.234;2023-08-17T14:00:28;35.60;95.50
40670;DHT22;26355;45.528;9.234;2023-08-17T14:02:54;35.70;95.60
40670;DHT22;26355;45.528;9.234;2023-08-17T14:05:20;35.80;95.50
40670;DHT22;26355;45.528;9.234;2023-08-17T14:07:46;35.80;95.50
40670;DHT22;26355;45.528;9.234;2023-08-17T14:10:12;35.70;95.50
40670;DHT22;26355;45.528;9.234;2023-08-17T14:12:37;35.70;95.30
40670;DHT22;26355;45.528;9.234;2023-08-17T14:15:03;35.80;95.30
40670;DHT22;26355;45.528;9.234;2023-08-17T14:17:38;35.70;94.80
40670;DHT22;26355;45.528;9.234;2023-08-17T14:20:03;35.60;94.70
40670;DHT22;26355;45.528;9.234;2023-08-17T14:22:30;35.70;94.90
40670;DHT22;26355;45.528;9.234;2023-08-17T14:24:55;35.60;94.50
40670;DHT22;26355;45.528;9.234;2023-08-17T14:27:21;35.70;94.60
40670;DHT22;26355;45.528;9.234;2023-08-17T14:29:47;35.70;94.40
40670;DHT22;26355;45.528;9.234;2023-08-17T14:32:12;35.80;94.70
40670;DHT22;26355;45.528;9.234;2023-08-17T14:34:38;35.90;94.90
40670;DHT22;26355;45.528;9.234;2023-08-17T14:37:03;35.90;95.10
40670;DHT22;26355;45.528;9.234;2023-08-17T14:39:29;35.90;95.40
40670;DHT22;26355;45.528;9.234;2023-08-17T14:41:55;35.80;95.50
40670;DHT22;26355;45.528;9.234;2023-08-17T14:44:20;35.90;95.90
40670;DHT22;26355;45.528;9.234;2023-08-17T14:46:46;35.90;95.50
40670;DHT22;26355;45.528;9.234;2023-08-17T14:49:12;35.90;95.60
40670;DHT22;26355;45.528;9.234;2023-08-17T14:51:39;35.90;95.60
40670;DHT22;26355;45.528;9.234;2023-08-17T14:54:05;36.00;95.80
40670;DHT22;26355;45.528;9.234;2023-08-17T14:56:30;35.90;96.10
40670;DHT22;26355;45.528;9.234;2023-08-17T14:58:56;35.90;96.10
40670;DHT22;26355;45.528;9.234;2023-08-17T15:01:21;35.80;96.20
40670;DHT22;26355;45.528;9.234;2023-08-17T15:03:47;35.60;96.00
40670;DHT22;26355;45.528;9.234;2023-08-17T15:06:13;35.60;96.20
40670;DHT22;26355;45.528;9.234;2023-08-17T15:08:38;35.60;96.10
40670;DHT22;26355;45.528;9.234;2023-08-17T15:11:04;35.40;96.00
40670;DHT22;26355;45.528;9.234;2023-08-17T15:13:29;35.30;96.20
40670;DHT22;26355;45.528;9.234;2023-08-17T15:15:55;35.30;96.20
40670;DHT22;26355;45.528;9.234;2023-08-17T15:18:21;35.30;95.80
40670;DHT22;26355;45.528;9.234;2023-08-17T15:20:46;35.30;95.80
40670;DHT22;26355;45.528;9.234;2023-08-17T15:23:12;35.30;95.60
40670;DHT22;26355;45.528;9.234;2023-08-17T15:25:38;35.20;95.80
40670;DHT22;26355;45.528;9.234;2023-08-17T15:28:03;35.20;95.70
40670;DHT22;26355;45.528;9.234;2023-08-17T15:30:29;35.10;95.40
40670;DHT22;26355;45.528;9.234;2023-08-17T15:32:55;35.10;95.30
40670;DHT22;26355;45.528;9.234;2023-08-17T15:35:20;35.20;95.20